Fort Bragg, CA (95437)

1:04 AM PDT on May 23, 2015 (GMT -0700)
Caspar Headlands | | Change Station
CLOSE
Current Station
Personal Weather Station
Location: Caspar, CA
Elevation: 69 ft
Nearby Weather Stations

Elev 69 ft 39.37 °N, 123.82 °W | Updated 1 second ago

Partly Cloudy
Partly Cloudy
51.6 °F
Feels Like 51.6 °F
N
8.0
Wind Variable Wind from WNW
Gusts 8.0 mph

Today
High -- | Low -- °F
--% Chance of Precip.
Yesterday
High -- | Low -- °F
Precip. -- in
5:55 AM 8:29 PM
Waxing Crescent, 28% visible
Pressure 30.02 in
Visibility 10.0 miles
Clouds Clear
Dew Point 51 °F
Humidity 99%
Rainfall 0.00 in
Snow Depth Not available.
UV 0 out of 12
Pollen 6.10 out of 12
Air Quality Not available.
Flu Activity Sporadic
METAR KUKI 230756Z AUTO 00000KT 10SM CLR 12/09 A3004 RMK AO2 SLP166 T01170089 402330117

More Conditions Fewer Conditions

Pressure 30.02 in
Visibility 10.0 miles
Clouds Clear
Dew Point 51 °F
Humidity 99%
Rainfall 0.00 in
Snow Depth Not available.
UV 0 out of 12
Pollen 6.10 out of 12
Air Quality Not available.
Flu Activity Sporadic
METAR KUKI 230756Z AUTO 00000KT 10SM CLR 12/09 A3004 RMK AO2 SLP166 T01170089 402330117

More Conditions Fewer Conditions

10-Day Weather Forecast

Almanac

Astronomy

May. 23, 2015 Rise Set
Actual Time
Civil Twilight
Nautical Twilight
Astronomical Twilight
Moon
Length of Visible Light
Length of Day
Tomorrow will be .
, % of the Moon is Illuminated

Today's Extremes

State Highs State Lows

Community

WunderPhotos

Upload Photos

1,823,401 photos uploaded!

WunderBlogs® & News

Nearby

Air Quality

  Air Quality AQ Index Pollutant
Not available.

Snow Depth

Station Depth Elevation

Earthquake Activity

City Distance Mag. Time & Date
Minimum magnitude displayed is 2.5.

Coastal Water Temperatures

Place Temperature

Stations

Nearby Weather Stations

Station Location Temp. Windchill Dew Point Humidity Wind Precip. Elev Updated Type